createdAt,value
2022-12-03T00:02:39.430Z,30.80
2022-12-03T00:05:48.835Z,30.02
2022-12-03T00:08:52.536Z,30.60
2022-12-03T00:11:58.485Z,31.42
2022-12-03T00:15:01.714Z,30.95
2022-12-03T00:18:05.113Z,30.92
2022-12-03T00:21:08.266Z,29.85
2022-12-03T00:24:11.444Z,30.95
2022-12-03T00:27:14.665Z,28.93
2022-12-03T00:30:18.088Z,29.77
2022-12-03T00:33:21.764Z,28.45
2022-12-03T00:36:25.003Z,29.90
2022-12-03T00:39:30.404Z,29.92
2022-12-03T00:42:33.573Z,29.95
2022-12-03T00:45:36.780Z,28.50
2022-12-03T00:48:39.918Z,29.90
2022-12-03T00:51:43.233Z,29.30
2022-12-03T00:54:46.498Z,30.83
2022-12-03T00:58:17.268Z,30.03
2022-12-03T01:01:20.616Z,28.67
2022-12-03T01:04:24.109Z,30.45
2022-12-03T01:07:27.458Z,29.38
2022-12-03T01:10:30.693Z,30.83
2022-12-03T01:13:33.853Z,29.45
2022-12-03T01:16:37.658Z,29.98
2022-12-03T01:19:46.523Z,32.10
2022-12-03T01:22:51.344Z,31.77
2022-12-03T01:25:54.570Z,32.83
2022-12-03T01:28:57.812Z,31.87
2022-12-03T01:32:19.685Z,33.25
2022-12-03T01:35:22.984Z,31.50
2022-12-03T01:38:26.460Z,33.13
2022-12-03T01:41:31.457Z,32.97
2022-12-03T01:44:36.609Z,33.85
2022-12-03T01:47:39.895Z,32.45
2022-12-03T01:50:43.890Z,32.57
2022-12-03T01:53:47.598Z,32.50
2022-12-03T01:56:51.000Z,33.60
2022-12-03T01:59:56.045Z,32.97
2022-12-03T02:03:02.219Z,31.60
2022-12-03T02:06:09.078Z,31.80
2022-12-03T02:09:13.707Z,30.83
2022-12-03T02:12:20.042Z,30.20
2022-12-03T02:15:26.785Z,29.83
2022-12-03T02:18:29.996Z,30.23
2022-12-03T02:21:40.161Z,27.92
2022-12-03T02:25:07.982Z,27.53
2022-12-03T02:28:11.594Z,28.25
2022-12-03T02:31:14.947Z,29.48
2022-12-03T02:34:53.913Z,29.98
2022-12-03T02:38:08.514Z,29.52
2022-12-03T02:41:34.859Z,30.77
2022-12-03T02:44:38.422Z,29.77
2022-12-03T02:47:55.820Z,33.27
2022-12-03T02:51:05.578Z,32.53
2022-12-03T02:54:08.755Z,30.55
2022-12-03T02:57:12.070Z,31.70
2022-12-03T03:00:17.373Z,32.95
2022-12-03T03:03:22.135Z,33.85
2022-12-03T03:06:25.925Z,33.38
2022-12-03T03:09:29.281Z,35.95
2022-12-03T03:12:38.849Z,33.53
2022-12-03T03:15:43.793Z,33.20
2022-12-03T03:18:47.413Z,34.80
2022-12-03T03:21:51.228Z,32.85
2022-12-03T03:24:54.642Z,33.25
2022-12-03T03:27:58.052Z,31.43
2022-12-03T03:31:04.024Z,32.03
2022-12-03T03:34:07.294Z,31.38
2022-12-03T03:37:10.548Z,33.47
2022-12-03T03:40:13.977Z,33.38
2022-12-03T03:43:17.248Z,36.00
2022-12-03T03:46:21.253Z,38.65
2022-12-03T03:49:24.737Z,36.40
2022-12-03T03:52:28.065Z,35.90
2022-12-03T03:55:31.761Z,35.22
2022-12-03T03:58:35.491Z,36.73
2022-12-03T04:01:38.934Z,33.60
2022-12-03T04:04:42.254Z,35.58
2022-12-03T04:07:45.483Z,34.67
2022-12-03T04:11:07.687Z,31.48
2022-12-03T04:14:10.873Z,31.08
2022-12-03T04:17:14.071Z,30.42
2022-12-03T04:20:17.313Z,29.07
2022-12-03T04:23:20.447Z,29.05
2022-12-03T04:26:42.579Z,30.55
2022-12-03T04:29:45.768Z,26.27
2022-12-03T04:33:07.620Z,27.80
2022-12-03T04:36:12.070Z,27.23
2022-12-03T04:39:15.281Z,28.70
2022-12-03T04:42:18.494Z,27.98
2022-12-03T04:45:21.678Z,27.10
2022-12-03T04:48:24.945Z,25.55
2022-12-03T04:51:28.101Z,25.33
2022-12-03T04:54:31.263Z,27.65
2022-12-03T04:57:34.517Z,26.17
2022-12-03T05:00:37.822Z,26.93
2022-12-03T05:03:41.029Z,24.90
2022-12-03T05:06:44.568Z,25.45
2022-12-03T05:09:47.937Z,26.80
2022-12-03T05:12:51.248Z,27.50
2022-12-03T05:15:54.428Z,26.48
2022-12-03T05:18:58.001Z,29.02
2022-12-03T05:22:01.249Z,27.50
2022-12-03T05:25:05.038Z,26.35
2022-12-03T05:28:08.574Z,25.77
2022-12-03T05:31:11.952Z,25.63
2022-12-03T05:34:15.238Z,24.60
2022-12-03T05:37:18.779Z,24.95
2022-12-03T05:40:22.247Z,24.88
2022-12-03T05:43:25.633Z,22.05
2022-12-03T05:46:28.976Z,22.02
2022-12-03T05:49:32.173Z,22.08
2022-12-03T05:52:35.410Z,23.33
2022-12-03T05:55:38.698Z,23.98
2022-12-03T05:58:41.866Z,23.13
2022-12-03T06:01:45.147Z,22.60
2022-12-03T06:04:48.391Z,24.08
2022-12-03T06:07:53.021Z,22.65
2022-12-03T06:10:56.226Z,22.10
2022-12-03T06:13:59.504Z,22.35
2022-12-03T06:17:03.082Z,22.17
2022-12-03T06:20:07.918Z,20.75
2022-12-03T06:23:11.113Z,22.73
2022-12-03T06:26:14.952Z,21.90
2022-12-03T06:29:18.205Z,19.67
2022-12-03T06:32:21.368Z,20.70
2022-12-03T06:35:24.685Z,22.67
2022-12-03T06:38:27.888Z,20.58
2022-12-03T06:41:31.250Z,23.27
2022-12-03T06:44:35.061Z,22.67
2022-12-03T06:47:39.514Z,20.70
2022-12-03T06:50:42.752Z,20.48
2022-12-03T06:53:46.004Z,21.27
2022-12-03T06:56:49.246Z,22.02
2022-12-03T06:59:52.803Z,20.27
2022-12-03T07:02:56.307Z,19.93
2022-12-03T07:05:59.625Z,19.55
2022-12-03T07:09:02.796Z,21.50
2022-12-03T07:12:06.341Z,22.48
2022-12-03T07:15:10.191Z,21.13
2022-12-03T07:18:13.381Z,21.60
2022-12-03T07:21:17.080Z,21.42
2022-12-03T07:24:20.398Z,21.70
2022-12-03T07:27:23.624Z,23.05
2022-12-03T07:30:27.816Z,24.05
2022-12-03T07:33:32.688Z,22.30
2022-12-03T07:36:35.858Z,23.38
2022-12-03T07:39:39.117Z,21.27
2022-12-03T07:42:42.334Z,22.10
2022-12-03T07:45:46.572Z,22.33
2022-12-03T07:48:50.310Z,22.35
2022-12-03T07:51:54.433Z,22.30
2022-12-03T07:54:57.759Z,23.03
2022-12-03T07:58:01.015Z,22.65
2022-12-03T08:01:04.311Z,22.73
2022-12-03T08:04:08.511Z,22.17
2022-12-03T08:07:13.585Z,23.20
2022-12-03T08:10:16.967Z,24.40
2022-12-03T08:13:20.377Z,23.67
2022-12-03T08:16:23.810Z,22.73
2022-12-03T08:19:27.846Z,24.05
2022-12-03T08:22:31.128Z,24.25
2022-12-03T08:25:34.636Z,24.63
2022-12-03T08:28:38.093Z,24.35
2022-12-03T08:31:42.026Z,23.50
2022-12-03T08:34:45.957Z,23.60
2022-12-03T08:38:10.969Z,24.17
2022-12-03T08:41:16.251Z,24.38
2022-12-03T08:44:28.112Z,24.85
2022-12-03T08:47:31.266Z,25.10
2022-12-03T08:50:39.344Z,23.98
2022-12-03T08:53:47.602Z,21.58
2022-12-03T08:56:50.790Z,23.93
2022-12-03T09:00:21.958Z,21.85
2022-12-03T09:03:25.567Z,19.35
2022-12-03T09:06:28.898Z,21.00
2022-12-03T09:09:32.362Z,19.85
2022-12-03T09:12:38.860Z,18.17
2022-12-03T09:15:42.053Z,18.23
2022-12-03T09:18:45.342Z,16.75
2022-12-03T09:21:48.729Z,16.67
2022-12-03T09:24:52.837Z,17.13
2022-12-03T09:27:56.485Z,18.27
2022-12-03T09:30:59.859Z,18.95
2022-12-03T09:34:04.613Z,18.17
2022-12-03T09:37:07.872Z,16.92
2022-12-03T09:40:12.020Z,16.80
2022-12-03T09:43:15.656Z,16.83
2022-12-03T09:46:20.868Z,15.73
2022-12-03T09:49:24.780Z,15.67
2022-12-03T09:52:29.793Z,15.85
2022-12-03T09:55:33.233Z,17.30
2022-12-03T09:58:36.705Z,16.02
2022-12-03T10:01:40.137Z,16.50
2022-12-03T10:04:43.436Z,17.13
2022-12-03T10:07:47.588Z,17.00
2022-12-03T10:10:54.356Z,17.30
2022-12-03T10:13:58.605Z,17.27
2022-12-03T10:17:02.028Z,16.65
2022-12-03T10:20:06.377Z,19.02
2022-12-03T10:23:09.772Z,18.03
2022-12-03T10:26:12.921Z,17.50
2022-12-03T10:29:32.931Z,17.75
2022-12-03T10:32:49.145Z,16.48
2022-12-03T10:35:52.359Z,16.35
2022-12-03T10:39:16.861Z,16.42
2022-12-03T10:42:20.138Z,15.45
2022-12-03T10:45:24.313Z,16.53
2022-12-03T10:48:30.489Z,16.48
2022-12-03T10:51:33.781Z,17.85
2022-12-03T10:54:36.982Z,18.30
2022-12-03T10:57:45.253Z,17.93
2022-12-03T11:00:51.294Z,16.85
2022-12-03T11:04:01.209Z,18.48
2022-12-03T11:07:16.896Z,17.95
2022-12-03T11:10:20.946Z,18.80
2022-12-03T11:13:33.049Z,21.05
2022-12-03T11:16:41.989Z,21.48
2022-12-03T11:19:47.350Z,22.80
2022-12-03T11:22:58.138Z,23.67
2022-12-03T11:26:01.416Z,23.05
2022-12-03T11:29:13.413Z,23.45
2022-12-03T11:32:42.617Z,23.73
2022-12-03T11:36:04.068Z,23.30
2022-12-03T11:39:12.174Z,20.73
2022-12-03T11:42:28.439Z,22.33
2022-12-03T11:45:34.010Z,24.00
2022-12-03T11:48:45.447Z,23.92
2022-12-03T11:51:49.033Z,24.17
2022-12-03T11:55:01.122Z,23.75
2022-12-03T11:58:17.432Z,24.55
2022-12-03T12:01:38.990Z,22.42
2022-12-03T12:04:46.644Z,23.07
2022-12-03T12:07:52.237Z,21.55
2022-12-03T12:10:56.058Z,20.90
2022-12-03T12:14:00.327Z,23.00
2022-12-03T12:17:05.083Z,19.17
2022-12-03T12:20:25.031Z,18.80
2022-12-03T12:23:29.794Z,17.45
2022-12-03T12:26:32.933Z,16.13
2022-12-03T12:29:38.097Z,19.92
2022-12-03T12:32:46.962Z,15.37
2022-12-03T12:35:50.934Z,16.02
2022-12-03T12:38:54.105Z,18.95
2022-12-03T12:41:57.689Z,12.07
2022-12-03T12:45:12.179Z,10.48
2022-12-03T12:48:28.821Z,11.00
2022-12-03T12:51:38.140Z,9.50
2022-12-03T12:54:41.891Z,10.15
2022-12-03T12:57:45.709Z,8.73
2022-12-03T13:00:55.768Z,9.18
2022-12-03T13:03:59.739Z,8.80
2022-12-03T13:07:02.981Z,9.35
2022-12-03T13:10:29.624Z,9.05
2022-12-03T13:13:43.720Z,8.13
2022-12-03T13:16:51.635Z,8.67
2022-12-03T13:20:06.740Z,9.48
2022-12-03T13:23:34.221Z,9.35
2022-12-03T13:26:39.813Z,9.45
2022-12-03T13:29:44.100Z,8.77
2022-12-03T13:32:47.318Z,9.00
2022-12-03T13:35:52.651Z,8.98
2022-12-03T13:38:55.946Z,8.32
2022-12-03T13:42:40.694Z,8.50
2022-12-03T13:45:47.955Z,7.97
2022-12-03T13:48:51.257Z,7.25
2022-12-03T13:51:54.566Z,8.32
2022-12-03T13:54:58.511Z,8.05
2022-12-03T13:58:01.673Z,8.43
2022-12-03T14:01:05.018Z,9.38
2022-12-03T14:04:08.206Z,9.02
2022-12-03T14:07:11.503Z,9.18
2022-12-03T14:10:16.368Z,8.98
2022-12-03T14:13:19.547Z,9.73
2022-12-03T14:16:22.896Z,9.20
2022-12-03T14:19:26.100Z,9.50
2022-12-03T14:22:30.066Z,9.23
2022-12-03T14:25:33.174Z,9.50
2022-12-03T14:28:36.424Z,9.17
2022-12-03T14:31:39.970Z,9.30
2022-12-03T14:34:43.255Z,9.85
2022-12-03T14:37:46.454Z,10.55
2022-12-03T14:40:49.685Z,9.43
2022-12-03T14:43:52.870Z,9.85
2022-12-03T14:46:57.459Z,10.43
2022-12-03T14:50:01.157Z,10.77
2022-12-03T14:53:04.494Z,10.25
2022-12-03T14:56:07.764Z,10.70
2022-12-03T14:59:10.944Z,10.20
2022-12-03T15:02:14.462Z,11.00
2022-12-03T15:05:20.019Z,10.73
2022-12-03T15:08:25.570Z,11.03
2022-12-03T15:11:29.154Z,10.32
2022-12-03T15:14:32.352Z,11.45
2022-12-03T15:17:35.600Z,11.57
2022-12-03T15:20:39.162Z,11.45
2022-12-03T15:23:42.552Z,11.30
2022-12-03T15:26:45.733Z,10.85
2022-12-03T15:29:48.912Z,11.75
2022-12-03T15:32:52.371Z,12.13
2022-12-03T15:35:55.616Z,11.63
2022-12-03T15:38:58.848Z,12.45
2022-12-03T15:42:02.687Z,11.18
2022-12-03T15:45:09.578Z,11.43
2022-12-03T15:48:16.814Z,11.80
2022-12-03T15:51:20.437Z,11.77
2022-12-03T15:54:23.630Z,11.65
2022-12-03T15:57:26.855Z,12.23
2022-12-03T16:00:30.903Z,11.03
2022-12-03T16:03:34.641Z,11.68
2022-12-03T16:06:38.127Z,14.48
2022-12-03T16:09:41.595Z,11.98
2022-12-03T16:12:44.815Z,11.52
2022-12-03T16:15:48.153Z,12.13
2022-12-03T16:18:51.658Z,11.55
2022-12-03T16:21:55.061Z,13.13
2022-12-03T16:24:58.289Z,12.00
2022-12-03T16:28:01.662Z,12.05
2022-12-03T16:31:05.115Z,13.13
2022-12-03T16:34:08.884Z,14.32
2022-12-03T16:37:12.337Z,14.27
2022-12-03T16:40:23.656Z,15.55
2022-12-03T16:43:26.833Z,16.80
2022-12-03T16:46:30.962Z,17.50
2022-12-03T16:49:34.589Z,18.10
2022-12-03T16:52:37.900Z,17.55
2022-12-03T16:55:41.282Z,16.25
2022-12-03T16:58:44.564Z,16.15
2022-12-03T17:01:48.153Z,17.47
2022-12-03T17:04:51.591Z,15.93
2022-12-03T17:07:54.914Z,16.00
2022-12-03T17:10:58.206Z,15.88
2022-12-03T17:14:01.547Z,15.17
2022-12-03T17:17:04.809Z,16.55
2022-12-03T17:20:08.775Z,17.80
2022-12-03T17:23:12.017Z,16.65
2022-12-03T17:26:15.609Z,16.53
2022-12-03T17:29:18.827Z,18.75
2022-12-03T17:32:22.096Z,19.65
2022-12-03T17:35:26.806Z,19.52
2022-12-03T17:38:34.151Z,19.50
2022-12-03T17:41:42.061Z,18.80
2022-12-03T17:44:45.231Z,19.10
2022-12-03T17:47:48.523Z,17.92
2022-12-03T17:50:51.734Z,18.07
2022-12-03T17:53:55.156Z,15.48
2022-12-03T17:56:58.457Z,15.07
2022-12-03T18:00:01.843Z,14.95
2022-12-03T18:03:15.377Z,14.87
2022-12-03T18:06:18.553Z,15.13
2022-12-03T18:09:22.485Z,14.02
2022-12-03T18:12:25.999Z,13.90
2022-12-03T18:15:29.712Z,14.43
2022-12-03T18:18:33.048Z,14.80
2022-12-03T18:21:36.489Z,14.40
2022-12-03T18:24:40.167Z,14.77
2022-12-03T18:27:43.411Z,14.50
2022-12-03T18:30:52.216Z,14.25
2022-12-03T18:33:56.101Z,14.48
2022-12-03T18:36:59.574Z,14.13
2022-12-03T18:40:13.443Z,14.27
2022-12-03T18:43:17.632Z,14.35
2022-12-03T18:49:45.753Z,15.38
2022-12-03T18:52:49.108Z,16.17
2022-12-03T18:55:52.334Z,15.65
2022-12-03T18:58:55.830Z,14.77
2022-12-03T19:02:00.266Z,14.27
2022-12-03T19:05:04.030Z,15.17
2022-12-03T19:08:14.258Z,14.98
2022-12-03T19:11:17.794Z,14.98
2022-12-03T19:14:21.286Z,15.70
2022-12-03T19:17:27.008Z,14.97
2022-12-03T19:20:30.988Z,16.73
2022-12-03T19:23:35.248Z,18.10
2022-12-03T19:26:38.790Z,17.35
2022-12-03T19:29:42.110Z,18.58
2022-12-03T19:32:45.968Z,19.40
2022-12-03T19:35:49.440Z,18.65
2022-12-03T19:38:57.343Z,17.83
2022-12-03T19:42:01.265Z,17.63
2022-12-03T19:45:05.635Z,18.30
2022-12-03T19:48:09.731Z,18.40
2022-12-03T19:51:33.674Z,18.52
2022-12-03T19:54:38.077Z,17.45
2022-12-03T19:57:41.572Z,17.48
2022-12-03T20:00:45.148Z,17.65
2022-12-03T20:03:51.188Z,16.67
2022-12-03T20:06:54.605Z,15.83
2022-12-03T20:09:58.067Z,14.98
2022-12-03T20:13:01.795Z,13.85
2022-12-03T20:16:07.080Z,13.90
2022-12-03T20:19:13.925Z,13.80
2022-12-03T20:22:17.389Z,13.75
2022-12-03T20:25:20.584Z,12.45
2022-12-03T20:28:24.522Z,11.55
2022-12-03T20:31:30.901Z,11.83
2022-12-03T20:34:36.029Z,10.90
2022-12-03T20:37:39.530Z,10.25
2022-12-03T20:40:43.053Z,10.13
2022-12-03T20:43:46.882Z,8.52
2022-12-03T20:46:50.303Z,9.98
2022-12-03T20:49:54.270Z,9.40
2022-12-03T20:53:22.630Z,8.43
2022-12-03T20:56:24.018Z,8.30
2022-12-03T20:59:27.369Z,8.23
2022-12-03T21:02:30.808Z,7.75
2022-12-03T21:05:34.387Z,8.63
2022-12-03T21:08:42.678Z,7.82
2022-12-03T21:11:46.582Z,7.50
2022-12-03T21:14:49.863Z,7.50
2022-12-03T21:17:53.338Z,8.20
2022-12-03T21:20:58.898Z,7.35
2022-12-03T21:24:02.403Z,7.75
2022-12-03T21:27:05.608Z,7.45
2022-12-03T21:30:09.129Z,7.90
2022-12-03T21:33:12.616Z,8.07
2022-12-03T21:36:17.036Z,7.88
2022-12-03T21:39:20.371Z,7.10
2022-12-03T21:42:36.242Z,8.20
2022-12-03T21:45:41.684Z,7.72
2022-12-03T21:48:45.570Z,7.38
2022-12-03T21:51:48.966Z,7.65
2022-12-03T21:54:55.087Z,7.30
2022-12-03T21:57:58.359Z,6.90
2022-12-03T22:01:09.687Z,6.28
2022-12-03T22:04:12.973Z,6.07
2022-12-03T22:07:16.144Z,5.80
2022-12-03T22:10:19.566Z,5.50
2022-12-03T22:13:22.689Z,5.32
2022-12-03T22:16:26.103Z,5.97
2022-12-03T22:19:34.320Z,5.90
2022-12-03T22:22:37.525Z,5.60
2022-12-03T22:25:40.747Z,5.80
2022-12-03T22:28:45.104Z,5.70
2022-12-03T22:31:48.338Z,5.45
2022-12-03T22:34:51.822Z,5.85
2022-12-03T22:37:55.066Z,5.60
2022-12-03T22:40:58.666Z,5.32
2022-12-03T22:44:01.902Z,5.80
2022-12-03T22:47:05.254Z,5.35
2022-12-03T22:50:09.061Z,5.30
2022-12-03T22:53:13.144Z,5.22
2022-12-03T22:56:17.311Z,5.57
2022-12-03T22:59:20.538Z,5.50
2022-12-03T23:02:23.811Z,5.03
2022-12-03T23:05:30.559Z,4.93
2022-12-03T23:08:34.134Z,4.80
2022-12-03T23:11:38.048Z,5.35
2022-12-03T23:14:41.225Z,5.18
2022-12-03T23:17:44.463Z,5.13
2022-12-03T23:20:52.985Z,4.53
2022-12-03T23:23:56.320Z,4.50
2022-12-03T23:26:59.562Z,5.00
2022-12-03T23:30:03.725Z,4.97
2022-12-03T23:33:07.434Z,4.75
2022-12-03T23:36:11.625Z,4.93
2022-12-03T23:39:15.021Z,4.25
2022-12-03T23:42:18.261Z,4.10
2022-12-03T23:45:21.473Z,3.90
2022-12-03T23:48:24.750Z,3.90
2022-12-03T23:51:28.702Z,4.90
2022-12-03T23:54:31.944Z,4.18
2022-12-03T23:57:35.580Z,3.97
